Tin City LRRS, AK

5:46 AM AKDT on October 30, 2014 (GMT -0800)
New Shishmaref | Change Station
CLOSE
Current Station
Airport
Location: Shishmaref,
Elevation: 13 ft
Nearby Weather Stations

Elev 13 ft 66.25 °N, 166.09 °W | Updated 10 minutes ago

Overcast
Overcast
28 °F
Feels Like 22 °F
N
6
Wind Variable Wind from NW

Today
High -- | Low -- °F
--% Chance of Precip.
Yesterday
High -- | Low -- °F
Precip. -- in
10:57 AM 6:51 PM
Waxing Crescent, 44% visible
Pressure 30.05 in
Visibility 10.0 miles
Clouds Overcast 4800 ft
Windchill 22 °F
Dew Point 16 °F
Humidity 59%
Rainfall 0.00 in
Snow Depth Not available.
UV 0 out of 12
Pollen Not available.
Air Quality Not available.
Flu Activity Not available.
METAR PASH 301336Z AUTO 31005KT 10SM OVC048 M02/M09 A3005 RMK AO1

More Conditions Fewer Conditions

Pressure 30.05 in
Visibility 10.0 miles
Clouds Overcast 4800 ft
Windchill 22 °F
Dew Point 16 °F
Humidity 59%
Rainfall 0.00 in
Snow Depth Not available.
UV 0 out of 12
Pollen Not available.
Air Quality Not available.
Flu Activity Not available.
METAR PASH 301336Z AUTO 31005KT 10SM OVC048 M02/M09 A3005 RMK AO1

More Conditions Fewer Conditions

10-Day Weather Forecast

Almanac

Astronomy

Oct. 30, 2014 Rise Set
Actual Time
Civil Twilight
Nautical Twilight
Astronomical Twilight
Moon
Length of Visible Light
Length of Day
Tomorrow will be .
, % of the Moon is Illuminated

Today's Extremes

State Highs State Lows

Community

WunderPhotos

Upload Photos

1,766,358 photos uploaded!

WunderBlogs® & News

Nearby

Air Quality

  Air Quality AQ Index Pollutant
Not available.

Snow Depth

Station Depth Elevation

Earthquake Activity

City Distance Mag. Time & Date
Minimum magnitude displayed is 2.5.

Coastal Water Temperatures

Place Temperature

Nearby Weather Stations